createdAt,value
2023-03-29T00:02:30.216Z,101285.44
2023-03-29T00:05:02.101Z,101280.13
2023-03-29T00:07:30.045Z,101276.63
2023-03-29T00:09:58.955Z,101274.94
2023-03-29T00:12:27.031Z,101266.19
2023-03-29T00:14:55.360Z,101268.13
2023-03-29T00:17:23.119Z,101268.94
2023-03-29T00:19:50.963Z,101267.25
2023-03-29T00:22:18.602Z,101255.03
2023-03-29T00:24:47.754Z,101261.22
2023-03-29T00:27:17.404Z,101253.34
2023-03-29T00:29:45.395Z,101251.63
2023-03-29T00:32:13.151Z,101246.50
2023-03-29T00:34:42.644Z,101250.94
2023-03-29T00:37:10.658Z,101241.34
2023-03-29T00:39:41.999Z,101243.97
2023-03-29T00:42:12.824Z,101239.53
2023-03-29T00:45:01.004Z,101238.72
2023-03-29T00:47:32.201Z,101236.09
2023-03-29T00:50:03.752Z,101236.09
2023-03-29T00:52:33.112Z,101225.63
2023-03-29T00:55:05.237Z,101229.13
2023-03-29T00:57:35.045Z,101215.97
2023-03-29T01:00:10.002Z,101219.50
2023-03-29T01:02:40.760Z,101222.06
2023-03-29T01:05:11.361Z,101210.63
2023-03-29T01:07:48.190Z,101208.00
2023-03-29T01:10:21.461Z,101208.00
2023-03-29T01:12:53.563Z,101205.31
2023-03-29T01:15:26.560Z,101195.66
2023-03-29T01:17:58.006Z,101186.97
2023-03-29T01:20:42.288Z,101192.22
2023-03-29T01:23:28.356Z,101181.69
2023-03-29T01:26:01.994Z,101184.22
2023-03-29T01:28:37.069Z,101178.09
2023-03-29T01:31:09.489Z,101166.72
2023-03-29T01:33:41.564Z,101172.81
2023-03-29T01:36:16.480Z,101164.88
2023-03-29T01:38:50.058Z,101148.28
2023-03-29T01:41:17.819Z,101157.03
2023-03-29T01:43:52.395Z,101156.13
2023-03-29T01:46:27.757Z,101157.84
2023-03-29T01:49:01.596Z,101144.75
2023-03-29T01:51:36.367Z,101142.91
2023-03-29T01:54:08.582Z,101138.50
2023-03-29T01:56:41.134Z,101137.53
2023-03-29T01:59:13.825Z,101134.88
2023-03-29T02:01:49.326Z,101139.16
2023-03-29T02:04:22.011Z,101128.53
2023-03-29T02:06:54.191Z,101117.94
2023-03-29T02:09:22.239Z,101117.88
2023-03-29T02:11:52.428Z,101114.31
2023-03-29T02:14:21.446Z,101117.72
2023-03-29T02:16:49.963Z,101108.06
2023-03-29T02:19:19.161Z,101113.22
2023-03-29T02:22:01.521Z,101111.41
2023-03-29T02:24:32.291Z,101106.91
2023-03-29T02:27:01.233Z,101104.16
2023-03-29T02:29:30.605Z,101111.94
2023-03-29T02:32:05.057Z,101102.25
2023-03-29T02:34:37.602Z,101102.25
2023-03-29T02:37:10.316Z,101093.47
2023-03-29T02:39:41.110Z,101096.91
2023-03-29T02:42:10.469Z,101091.59
2023-03-29T02:44:42.581Z,101096.75
2023-03-29T02:47:16.612Z,101089.75
2023-03-29T02:49:44.568Z,101088.78
2023-03-29T02:52:17.384Z,101085.28
2023-03-29T02:54:48.498Z,101086.13
2023-03-29T02:57:16.266Z,101070.28
2023-03-29T02:59:45.309Z,101071.13
2023-03-29T03:02:13.606Z,101065.88
2023-03-29T03:04:41.446Z,101070.22
2023-03-29T03:07:09.383Z,101057.06
2023-03-29T03:09:37.348Z,101063.13
2023-03-29T03:12:05.235Z,101049.97
2023-03-29T03:14:33.235Z,101050.75
2023-03-29T03:17:04.713Z,101044.66
2023-03-29T03:19:33.818Z,101042.78
2023-03-29T03:22:01.591Z,101050.69
2023-03-29T03:24:29.335Z,101035.81
2023-03-29T03:26:58.232Z,101034.06
2023-03-29T03:29:26.087Z,101035.72
2023-03-29T03:32:27.135Z,101027.75
2023-03-29T03:35:29.969Z,101035.44
2023-03-29T03:37:57.926Z,101035.38
2023-03-29T03:40:27.870Z,101039.66
2023-03-29T03:42:56.085Z,101049.19
2023-03-29T03:45:24.754Z,101041.28
2023-03-29T03:47:54.062Z,101044.56
2023-03-29T03:50:35.178Z,101034.00
2023-03-29T03:53:03.391Z,101030.41
2023-03-29T03:55:50.110Z,101031.19
2023-03-29T03:58:23.393Z,101027.63
2023-03-29T04:00:52.024Z,101030.16
2023-03-29T04:03:37.638Z,101030.97
2023-03-29T04:06:06.469Z,101026.53
2023-03-29T04:08:54.047Z,101033.41
2023-03-29T04:11:34.966Z,101031.63
2023-03-29T04:14:02.733Z,101030.75
2023-03-29T04:16:42.385Z,101026.25
2023-03-29T04:19:43.480Z,101034.09
2023-03-29T04:22:11.141Z,101026.25
2023-03-29T04:24:38.998Z,101012.28
2023-03-29T04:27:25.121Z,101018.41
2023-03-29T04:29:52.936Z,101011.38
2023-03-29T04:32:28.820Z,101013.13
2023-03-29T04:36:54.701Z,101014.00
2023-03-29T04:39:33.925Z,101018.41
2023-03-29T04:42:05.155Z,101014.97
2023-03-29T04:44:34.953Z,101019.28
2023-03-29T04:47:05.767Z,101012.44
2023-03-29T04:49:39.152Z,101011.59
2023-03-29T04:52:14.696Z,101007.44
2023-03-29T04:54:43.714Z,101008.59
2023-03-29T04:57:20.346Z,101013.16
2023-03-29T05:00:13.704Z,100999.28
2023-03-29T05:02:58.800Z,100991.56
2023-03-29T05:05:29.198Z,100992.44
2023-03-29T05:07:59.753Z,100995.13
2023-03-29T05:10:35.115Z,100996.09
2023-03-29T05:13:04.044Z,100996.22
2023-03-29T05:15:32.719Z,100984.16
2023-03-29T05:18:00.847Z,100975.53
2023-03-29T05:20:31.571Z,100980.88
2023-03-29T05:23:01.803Z,100978.25
2023-03-29T05:25:50.080Z,100975.72
2023-03-29T05:28:18.441Z,100976.72
2023-03-29T05:30:46.525Z,100976.78
2023-03-29T05:33:21.250Z,100970.78
2023-03-29T05:35:49.033Z,100971.88
2023-03-29T05:38:18.058Z,100978.25
2023-03-29T05:40:45.781Z,100981.03
2023-03-29T05:43:36.296Z,100969.91
2023-03-29T05:46:05.881Z,100975.38
2023-03-29T05:48:33.575Z,100968.56
2023-03-29T05:51:01.528Z,100969.72
2023-03-29T05:53:30.647Z,100964.84
2023-03-29T05:55:58.711Z,100971.19
2023-03-29T05:58:28.985Z,100968.03
2023-03-29T06:01:00.547Z,100970.84
2023-03-29T06:03:54.308Z,100977.22
2023-03-29T06:06:25.440Z,100977.44
2023-03-29T06:08:54.922Z,100969.75
2023-03-29T06:11:32.867Z,100961.22
2023-03-29T06:14:24.879Z,100965.84
2023-03-29T06:17:02.688Z,100970.44
2023-03-29T06:19:31.951Z,100972.47
2023-03-29T06:21:59.732Z,100970.97
2023-03-29T06:24:30.962Z,100965.13
2023-03-29T06:27:07.362Z,100976.88
2023-03-29T06:29:35.122Z,100964.91
2023-03-29T06:32:03.332Z,100973.94
2023-03-29T06:34:48.848Z,100973.38
2023-03-29T06:37:40.577Z,100975.47
2023-03-29T06:40:25.989Z,100967.81
2023-03-29T06:42:57.857Z,100972.47
2023-03-29T06:45:44.668Z,100974.47
2023-03-29T06:48:21.370Z,100965.06
2023-03-29T06:50:49.319Z,100965.28
2023-03-29T06:53:18.091Z,100965.47
2023-03-29T06:55:55.779Z,100971.81
2023-03-29T06:58:44.953Z,100966.72
2023-03-29T07:01:47.900Z,100967.75
2023-03-29T07:04:23.508Z,100962.56
2023-03-29T07:07:43.857Z,100969.59
2023-03-29T07:10:26.254Z,100973.16
2023-03-29T07:13:15.561Z,100980.22
2023-03-29T07:15:45.027Z,100976.72
2023-03-29T07:18:31.587Z,100971.56
2023-03-29T07:20:59.398Z,100967.22
2023-03-29T07:23:27.100Z,100975.22
2023-03-29T07:25:54.732Z,100980.56
2023-03-29T07:28:24.357Z,100989.44
2023-03-29T07:30:54.990Z,100977.22
2023-03-29T07:33:23.473Z,100973.81
2023-03-29T07:35:57.512Z,100973.13
2023-03-29T07:38:26.140Z,100974.16
2023-03-29T07:41:00.476Z,100974.28
2023-03-29T07:43:51.897Z,100985.00
2023-03-29T07:46:24.950Z,100970.28
2023-03-29T07:48:52.754Z,100974.84
2023-03-29T07:51:20.912Z,100978.53
2023-03-29T07:53:52.437Z,100976.13
2023-03-29T07:56:38.722Z,100975.50
2023-03-29T07:59:43.010Z,100966.03
2023-03-29T08:02:16.304Z,100959.25
2023-03-29T08:04:50.245Z,100957.66
2023-03-29T08:07:24.465Z,100967.53
2023-03-29T08:10:16.395Z,100963.25
2023-03-29T08:13:19.554Z,100972.31
2023-03-29T08:16:06.814Z,100966.38
2023-03-29T08:18:39.440Z,100969.22
2023-03-29T08:21:08.282Z,100967.66
2023-03-29T08:23:37.101Z,100971.38
2023-03-29T08:26:15.950Z,100958.44
2023-03-29T08:28:44.122Z,100961.22
2023-03-29T08:31:13.769Z,100947.28
2023-03-29T08:33:44.474Z,100958.00
2023-03-29T08:36:30.752Z,100943.25
2023-03-29T08:39:03.412Z,100948.69
2023-03-29T08:41:45.701Z,100944.56
2023-03-29T08:44:23.373Z,100940.31
2023-03-29T08:47:09.648Z,100947.56
2023-03-29T08:49:45.405Z,100940.63
2023-03-29T08:52:22.061Z,100941.63
2023-03-29T08:54:54.048Z,100943.44
2023-03-29T08:58:00.974Z,100938.31
2023-03-29T09:00:38.131Z,100944.56
2023-03-29T09:03:12.643Z,100937.66
2023-03-29T09:05:47.451Z,100945.69
2023-03-29T09:08:23.537Z,100943.16
2023-03-29T09:11:12.566Z,100935.38
2023-03-29T09:13:51.449Z,100945.16
2023-03-29T09:16:30.138Z,100936.44
2023-03-29T09:19:11.427Z,100936.56
2023-03-29T09:21:46.629Z,100934.09
2023-03-29T09:24:29.860Z,100937.72
2023-03-29T09:27:15.340Z,100930.75
2023-03-29T09:29:56.656Z,100927.31
2023-03-29T09:32:44.059Z,100921.25
2023-03-29T09:35:19.177Z,100928.47
2023-03-29T09:37:49.879Z,100919.75
2023-03-29T09:40:20.131Z,100918.03
2023-03-29T09:43:07.910Z,100913.69
2023-03-29T09:45:39.284Z,100919.91
2023-03-29T09:48:12.531Z,100919.97
2023-03-29T09:50:46.489Z,100923.56
2023-03-29T09:53:15.261Z,100916.59
2023-03-29T09:55:52.025Z,100909.69
2023-03-29T09:58:32.804Z,100922.19
2023-03-29T10:01:03.106Z,100909.91
2023-03-29T10:03:34.883Z,100903.91
2023-03-29T10:06:14.847Z,100904.03
2023-03-29T10:08:52.697Z,100900.66
2023-03-29T10:11:24.198Z,100898.06
2023-03-29T10:13:57.200Z,100899.06
2023-03-29T10:16:29.434Z,100889.47
2023-03-29T10:18:57.453Z,100879.88
2023-03-29T10:21:30.282Z,100879.06
2023-03-29T10:23:59.595Z,100885.34
2023-03-29T10:26:32.840Z,100869.50
2023-03-29T10:29:01.898Z,100878.38
2023-03-29T10:31:33.140Z,100876.72
2023-03-29T10:34:04.950Z,100868.81
2023-03-29T10:36:34.310Z,100872.41
2023-03-29T10:39:06.254Z,100869.78
2023-03-29T10:41:36.727Z,100870.69
2023-03-29T10:44:05.015Z,100866.31
2023-03-29T10:46:36.244Z,100867.19
2023-03-29T10:49:10.321Z,100861.00
2023-03-29T10:51:45.729Z,100865.41
2023-03-29T10:54:15.805Z,100860.13
2023-03-29T10:56:47.980Z,100865.44
2023-03-29T10:59:27.346Z,100854.84
2023-03-29T11:02:17.688Z,100855.72
2023-03-29T11:04:48.624Z,100851.34
2023-03-29T11:07:27.228Z,100849.59
2023-03-29T11:10:07.911Z,100843.41
2023-03-29T11:12:43.579Z,100846.06
2023-03-29T11:15:34.255Z,100832.78
2023-03-29T11:18:25.148Z,100831.88
2023-03-29T11:20:59.114Z,100828.31
2023-03-29T11:23:42.120Z,100825.56
2023-03-29T11:26:16.644Z,100829.06
2023-03-29T11:28:53.014Z,100829.03
2023-03-29T11:31:33.031Z,100825.34
2023-03-29T11:34:15.470Z,100827.16
2023-03-29T11:36:52.744Z,100829.78
2023-03-29T11:39:31.432Z,100823.53
2023-03-29T11:42:05.343Z,100817.25
2023-03-29T11:44:34.362Z,100824.25
2023-03-29T11:47:07.315Z,100825.03
2023-03-29T11:49:39.483Z,100817.91
2023-03-29T11:52:13.896Z,100820.56
2023-03-29T11:54:49.409Z,100813.53
2023-03-29T11:57:27.296Z,100823.25
2023-03-29T12:00:00.048Z,100814.31
2023-03-29T12:02:34.598Z,100800.97
2023-03-29T12:05:10.870Z,100800.00
2023-03-29T12:07:44.786Z,100793.72
2023-03-29T12:10:20.784Z,100785.69
2023-03-29T12:12:55.945Z,100777.56
2023-03-29T12:15:26.297Z,100777.50
2023-03-29T12:18:02.324Z,100775.69
2023-03-29T12:20:35.095Z,100766.81
2023-03-29T12:23:04.384Z,100771.25
2023-03-29T12:25:41.901Z,100781.09
2023-03-29T12:28:28.444Z,100789.19
2023-03-29T12:31:03.777Z,100787.47
2023-03-29T12:33:57.941Z,100784.00
2023-03-29T12:37:03.480Z,100787.56
2023-03-29T12:39:51.583Z,100789.44
2023-03-29T12:42:46.183Z,100784.13
2023-03-29T12:45:48.321Z,100786.81
2023-03-29T12:48:20.257Z,100777.03
2023-03-29T12:50:52.392Z,100777.97
2023-03-29T12:53:24.216Z,100778.81
2023-03-29T12:56:08.533Z,100766.25
2023-03-29T12:58:52.590Z,100757.41
2023-03-29T13:01:29.509Z,100770.78
2023-03-29T13:04:13.712Z,100763.69
2023-03-29T13:07:03.951Z,100753.91
2023-03-29T13:09:35.617Z,100750.34
2023-03-29T13:12:20.888Z,100746.69
2023-03-29T13:14:54.472Z,100737.72
2023-03-29T13:17:27.893Z,100742.09
2023-03-29T13:20:12.416Z,100742.00
2023-03-29T13:22:50.616Z,100742.72
2023-03-29T13:25:41.277Z,100744.34
2023-03-29T13:28:16.680Z,100737.97
2023-03-29T13:30:55.656Z,100739.50
2023-03-29T13:33:44.121Z,100726.06
2023-03-29T13:36:22.549Z,100739.28
2023-03-29T13:38:53.252Z,100729.59
2023-03-29T13:41:32.468Z,100739.34
2023-03-29T13:44:00.300Z,100739.44
2023-03-29T13:46:40.926Z,100742.19
2023-03-29T13:49:18.174Z,100735.19
2023-03-29T13:52:03.681Z,100738.78
2023-03-29T13:54:36.572Z,100736.97
2023-03-29T13:57:10.841Z,100730.78
2023-03-29T13:59:45.886Z,100734.41
2023-03-29T14:02:23.003Z,100734.41
2023-03-29T14:04:53.442Z,100720.16
2023-03-29T14:07:26.173Z,100724.63
2023-03-29T14:09:56.378Z,100719.31
2023-03-29T14:12:24.526Z,100727.31
2023-03-29T14:14:59.205Z,100731.69
2023-03-29T14:17:29.176Z,100729.00
2023-03-29T14:19:59.582Z,100725.44
2023-03-29T14:22:33.416Z,100725.34
2023-03-29T14:25:04.673Z,100718.19
2023-03-29T14:27:32.816Z,100720.00
2023-03-29T14:30:01.070Z,100712.03
2023-03-29T14:32:32.418Z,100705.81
2023-03-29T14:35:01.826Z,100700.41
2023-03-29T14:37:30.766Z,100693.28
2023-03-29T14:39:59.744Z,100686.16
2023-03-29T14:42:30.099Z,100687.06
2023-03-29T14:45:05.376Z,100698.59
2023-03-29T14:47:35.070Z,100695.91
2023-03-29T14:50:03.943Z,100686.00
2023-03-29T14:52:33.010Z,100681.53
2023-03-29T14:55:02.289Z,100677.06
2023-03-29T14:57:35.228Z,100679.69
2023-03-29T15:00:13.433Z,100684.03
2023-03-29T15:02:50.947Z,100671.50
2023-03-29T15:05:35.604Z,100667.16
2023-03-29T15:08:04.196Z,100673.47
2023-03-29T15:10:33.790Z,100674.38
2023-03-29T15:13:04.242Z,100678.81
2023-03-29T15:15:34.589Z,100671.75
2023-03-29T15:18:07.013Z,100665.53
2023-03-29T15:20:37.544Z,100668.25
2023-03-29T15:23:10.659Z,100670.00
2023-03-29T15:25:40.210Z,100664.75
2023-03-29T15:28:08.028Z,100662.97
2023-03-29T15:30:38.976Z,100660.34
2023-03-29T15:33:16.366Z,100657.72
2023-03-29T15:35:47.237Z,100664.00
2023-03-29T15:38:14.943Z,100668.53
2023-03-29T15:40:42.789Z,100665.09
2023-03-29T15:43:10.754Z,100657.19
2023-03-29T15:45:38.381Z,100665.22
2023-03-29T15:48:16.312Z,100662.63
2023-03-29T15:50:45.080Z,100657.38
2023-03-29T15:53:15.645Z,100656.56
2023-03-29T15:55:46.244Z,100656.59
2023-03-29T15:58:15.953Z,100653.16
2023-03-29T16:00:46.540Z,100652.34
2023-03-29T16:03:16.816Z,100648.03
2023-03-29T16:05:45.467Z,100649.94
2023-03-29T16:08:13.831Z,100645.56
2023-03-29T16:10:43.772Z,100642.13
2023-03-29T16:13:14.247Z,100647.50
2023-03-29T16:15:43.589Z,100646.69
2023-03-29T16:18:11.261Z,100646.78
2023-03-29T16:20:40.580Z,100640.66
2023-03-29T16:23:09.453Z,100644.28
2023-03-29T16:25:39.812Z,100641.72
2023-03-29T16:28:09.049Z,100647.13
2023-03-29T16:30:38.426Z,100646.34
2023-03-29T16:33:08.428Z,100646.38
2023-03-29T16:35:39.813Z,100651.75
2023-03-29T16:38:09.959Z,100655.31
2023-03-29T16:40:38.339Z,100648.28
2023-03-29T16:43:06.185Z,100648.38
2023-03-29T16:45:33.989Z,100642.19
2023-03-29T16:48:01.743Z,100643.13
2023-03-29T16:50:29.417Z,100644.03
2023-03-29T16:52:57.048Z,100642.31
2023-03-29T16:55:25.976Z,100635.25
2023-03-29T16:57:53.850Z,100633.50
2023-03-29T17:00:22.211Z,100637.94
2023-03-29T17:02:50.601Z,100627.38
2023-03-29T17:05:18.774Z,100625.59
2023-03-29T17:07:46.953Z,100637.13
2023-03-29T17:10:15.503Z,100639.78
2023-03-29T17:12:44.451Z,100635.41
2023-03-29T17:15:12.206Z,100631.00
2023-03-29T17:17:40.119Z,100623.91
2023-03-29T17:20:11.800Z,100625.72
2023-03-29T17:22:39.593Z,100628.38
2023-03-29T17:25:08.723Z,100632.78
2023-03-29T17:27:37.406Z,100622.19
2023-03-29T17:30:15.901Z,100623.94
2023-03-29T17:32:45.692Z,100620.41
2023-03-29T17:35:13.706Z,100627.50
2023-03-29T17:37:41.905Z,100613.34
2023-03-29T17:40:13.580Z,100607.19
2023-03-29T17:42:41.270Z,100608.97
2023-03-29T17:45:11.093Z,100609.81
2023-03-29T17:47:39.312Z,100608.97
2023-03-29T17:50:11.103Z,100609.88
2023-03-29T17:52:40.444Z,100608.94
2023-03-29T17:55:11.119Z,100619.59
2023-03-29T17:57:39.301Z,100626.66
2023-03-29T18:00:09.281Z,100626.69
2023-03-29T18:02:37.050Z,100620.47
2023-03-29T18:05:05.369Z,100624.91
2023-03-29T18:07:34.324Z,100625.78
2023-03-29T18:10:02.348Z,100616.94
2023-03-29T18:12:30.328Z,100607.22
2023-03-29T18:14:57.949Z,100614.31
2023-03-29T18:17:27.295Z,100607.22
2023-03-29T18:19:55.262Z,100616.09
2023-03-29T18:22:24.040Z,100605.47
2023-03-29T18:24:54.849Z,100610.78
2023-03-29T18:27:22.467Z,100600.16
2023-03-29T18:29:50.070Z,100612.53
2023-03-29T18:32:17.832Z,100606.38
2023-03-29T18:34:45.553Z,100602.81
2023-03-29T18:37:15.076Z,100604.59
2023-03-29T18:39:43.030Z,100606.34
2023-03-29T18:42:12.795Z,100610.78
2023-03-29T18:44:41.113Z,100604.59
2023-03-29T18:47:09.552Z,100616.06
2023-03-29T18:49:37.615Z,100609.91
2023-03-29T18:52:05.790Z,100611.66
2023-03-29T18:54:33.446Z,100604.59
2023-03-29T18:57:01.417Z,100601.06
2023-03-29T18:59:30.573Z,100604.59
2023-03-29T19:01:58.171Z,100598.41
2023-03-29T19:04:27.198Z,100601.06
2023-03-29T19:06:55.598Z,100593.09
2023-03-29T19:09:23.444Z,100602.81
2023-03-29T19:11:51.085Z,100597.53
2023-03-29T19:14:23.421Z,100594.88
2023-03-29T19:16:53.391Z,100586.91
2023-03-29T19:19:23.770Z,100589.56
2023-03-29T19:21:52.818Z,100581.59
2023-03-29T19:24:20.811Z,100575.44
2023-03-29T19:26:50.002Z,100580.72
2023-03-29T19:29:17.596Z,100585.16
2023-03-29T19:31:45.401Z,100578.06
2023-03-29T19:34:15.585Z,100571.91
2023-03-29T19:36:43.173Z,100576.28
2023-03-29T19:39:10.890Z,100583.38
2023-03-29T19:41:41.342Z,100581.63
2023-03-29T19:44:09.474Z,100582.50
2023-03-29T19:46:37.120Z,100582.47
2023-03-29T19:49:05.647Z,100582.47
2023-03-29T19:51:34.912Z,100572.78
2023-03-29T19:54:02.650Z,100571.88
2023-03-29T19:56:30.333Z,100569.25
2023-03-29T19:58:57.974Z,100571.00
2023-03-29T20:01:27.267Z,100578.94
2023-03-29T20:03:55.000Z,100571.00
2023-03-29T20:06:22.712Z,100561.28
2023-03-29T20:08:52.832Z,100567.47
2023-03-29T20:11:23.827Z,100557.75
2023-03-29T20:13:51.597Z,100550.69
2023-03-29T20:16:24.291Z,100540.97
2023-03-29T20:18:53.967Z,100532.16
2023-03-29T20:21:21.707Z,100537.44
2023-03-29T20:23:50.748Z,100521.53
2023-03-29T20:26:18.830Z,100531.25
2023-03-29T20:28:46.701Z,100532.13
2023-03-29T20:31:14.355Z,100522.44
2023-03-29T20:33:44.348Z,100525.06
2023-03-29T20:36:13.148Z,100513.59
2023-03-29T20:38:41.010Z,100510.94
2023-03-29T20:41:10.860Z,100511.81
2023-03-29T20:43:38.548Z,100518.00
2023-03-29T20:46:14.325Z,100504.75
2023-03-29T20:48:45.921Z,100498.56
2023-03-29T20:51:14.195Z,100492.41
2023-03-29T20:53:42.922Z,100491.50
2023-03-29T20:56:13.095Z,100487.09
2023-03-29T20:58:42.220Z,100485.31
2023-03-29T21:01:10.036Z,100484.44
2023-03-29T21:03:38.047Z,100475.63
2023-03-29T21:06:05.982Z,100469.41
2023-03-29T21:08:33.630Z,100477.34
2023-03-29T21:11:01.326Z,100473.84
2023-03-29T21:13:33.765Z,100467.66
2023-03-29T21:16:03.429Z,100472.94
2023-03-29T21:18:31.152Z,100466.78
2023-03-29T21:20:58.764Z,100467.66
2023-03-29T21:23:26.377Z,100460.59
2023-03-29T21:25:53.991Z,100463.25
2023-03-29T21:28:21.602Z,100459.69
2023-03-29T21:30:50.868Z,100454.44
2023-03-29T21:33:18.482Z,100458.81
2023-03-29T21:35:48.673Z,100459.72
2023-03-29T21:38:16.554Z,100456.16
2023-03-29T21:40:44.387Z,100447.34
2023-03-29T21:43:12.008Z,100442.06
2023-03-29T21:45:39.647Z,100438.50
2023-03-29T21:48:08.701Z,100448.22
2023-03-29T21:50:36.400Z,100442.06
2023-03-29T21:53:04.021Z,100448.22
2023-03-29T21:55:36.102Z,100436.75
2023-03-29T21:58:04.083Z,100432.34
2023-03-29T22:00:32.057Z,100436.78
2023-03-29T22:02:59.811Z,100431.47
2023-03-29T22:05:28.868Z,100429.69
2023-03-29T22:07:58.690Z,100423.53
2023-03-29T22:10:27.290Z,100434.13
2023-03-29T22:12:54.939Z,100420.88
2023-03-29T22:15:22.575Z,100412.94
2023-03-29T22:17:50.501Z,100404.13
2023-03-29T22:20:18.871Z,100416.44
2023-03-29T22:22:50.840Z,100407.63
2023-03-29T22:25:19.351Z,100408.53
2023-03-29T22:27:48.654Z,100402.31
2023-03-29T22:30:17.187Z,100395.28
2023-03-29T22:32:44.880Z,100399.69
2023-03-29T22:35:12.778Z,100400.56
2023-03-29T22:37:44.365Z,100404.09
2023-03-29T22:40:14.636Z,100402.31
2023-03-29T22:42:42.312Z,100402.31
2023-03-29T22:45:10.971Z,100400.56
2023-03-29T22:47:38.710Z,100392.63
2023-03-29T22:50:07.581Z,100386.47
2023-03-29T22:52:35.293Z,100375.88
2023-03-29T22:55:03.080Z,100378.50
2023-03-29T22:57:32.200Z,100375.00
2023-03-29T22:59:59.823Z,100372.31
2023-03-29T23:02:27.544Z,100380.25
2023-03-29T23:04:56.335Z,100380.25
2023-03-29T23:07:23.957Z,100376.69
2023-03-29T23:09:51.834Z,100372.31
2023-03-29T23:12:19.466Z,100363.47
2023-03-29T23:14:48.422Z,100370.53
2023-03-29T23:17:19.342Z,100359.94
2023-03-29T23:19:47.902Z,100360.84
2023-03-29T23:22:15.740Z,100357.28
2023-03-29T23:24:47.254Z,100356.41
2023-03-29T23:27:15.447Z,100322.00
2023-03-29T23:29:45.266Z,100322.88
2023-03-29T23:32:15.707Z,100322.00
2023-03-29T23:34:43.460Z,100332.59
2023-03-29T23:37:11.255Z,100328.22
2023-03-29T23:39:38.926Z,100307.03
2023-03-29T23:42:06.693Z,100309.69
2023-03-29T23:44:34.305Z,100299.97
2023-03-29T23:47:01.954Z,100284.94
2023-03-29T23:49:31.813Z,100294.66
2023-03-29T23:52:00.268Z,100300.84
2023-03-29T23:54:28.993Z,100299.06
2023-03-29T23:56:56.650Z,100305.25
2023-03-29T23:59:29.853Z,100302.59
